sensor_id;sensor_type;location;lat;lon;timestamp;P1;durP1;ratioP1;P2;durP2;ratioP2
50789;SDS011;37287;47.554;7.844;2023-04-01T00:00:23;0.20;;;0.10;;
50789;SDS011;37287;47.554;7.844;2023-04-01T00:02:51;1.98;;;0.20;;
50789;SDS011;37287;47.554;7.844;2023-04-01T00:05:20;1.95;;;0.45;;
50789;SDS011;37287;47.554;7.844;2023-04-01T00:07:46;0.30;;;0.20;;
50789;SDS011;37287;47.554;7.844;2023-04-01T00:10:15;0.38;;;0.30;;
50789;SDS011;37287;47.554;7.844;2023-04-01T00:12:41;0.55;;;0.20;;
50789;SDS011;37287;47.554;7.844;2023-04-01T00:15:11;0.28;;;0.20;;
50789;SDS011;37287;47.554;7.844;2023-04-01T00:17:38;0.93;;;0.20;;
50789;SDS011;37287;47.554;7.844;2023-04-01T00:20:05;0.50;;;0.47;;
50789;SDS011;37287;47.554;7.844;2023-04-01T00:22:34;0.52;;;0.20;;
50789;SDS011;37287;47.554;7.844;2023-04-01T00:25:07;0.10;;;0.10;;
50789;SDS011;37287;47.554;7.844;2023-04-01T00:27:34;0.10;;;0.10;;
50789;SDS011;37287;47.554;7.844;2023-04-01T00:30:00;0.70;;;0.30;;
50789;SDS011;37287;47.554;7.844;2023-04-01T00:32:27;0.80;;;0.30;;
50789;SDS011;37287;47.554;7.844;2023-04-01T00:34:54;1.55;;;0.30;;
50789;SDS011;37287;47.554;7.844;2023-04-01T00:37:20;0.20;;;0.20;;
50789;SDS011;37287;47.554;7.844;2023-04-01T00:39:49;0.20;;;0.20;;
50789;SDS011;37287;47.554;7.844;2023-04-01T00:42:16;0.10;;;0.10;;
50789;SDS011;37287;47.554;7.844;2023-04-01T00:44:42;0.43;;;0.20;;
50789;SDS011;37287;47.554;7.844;2023-04-01T00:47:16;0.32;;;0.10;;
50789;SDS011;37287;47.554;7.844;2023-04-01T00:49:47;1.23;;;0.30;;
50789;SDS011;37287;47.554;7.844;2023-04-01T00:52:17;0.20;;;0.20;;
50789;SDS011;37287;47.554;7.844;2023-04-01T00:54:49;0.45;;;0.20;;
50789;SDS011;37287;47.554;7.844;2023-04-01T00:57:23;1.17;;;0.45;;
50789;SDS011;37287;47.554;7.844;2023-04-01T00:59:59;0.90;;;0.28;;
50789;SDS011;37287;47.554;7.844;2023-04-01T01:10:33;0.65;;;0.38;;
50789;SDS011;37287;47.554;7.844;2023-04-01T01:16:04;0.28;;;0.20;;
50789;SDS011;37287;47.554;7.844;2023-04-01T01:18:41;0.38;;;0.17;;
50789;SDS011;37287;47.554;7.844;2023-04-01T01:35:32;0.30;;;0.20;;
50789;SDS011;37287;47.554;7.844;2023-04-01T01:38:04;0.82;;;0.20;;
50789;SDS011;37287;47.554;7.844;2023-04-01T01:40:34;3.95;;;0.32;;
50789;SDS011;37287;47.554;7.844;2023-04-01T01:43:08;3.25;;;0.75;;
50789;SDS011;37287;47.554;7.844;2023-04-01T01:45:39;5.05;;;1.15;;
50789;SDS011;37287;47.554;7.844;2023-04-01T01:48:11;2.13;;;0.70;;
50789;SDS011;37287;47.554;7.844;2023-04-01T01:50:38;4.72;;;1.02;;
50789;SDS011;37287;47.554;7.844;2023-04-01T01:53:10;9.52;;;1.27;;
50789;SDS011;37287;47.554;7.844;2023-04-01T01:55:43;4.68;;;1.17;;
50789;SDS011;37287;47.554;7.844;2023-04-01T02:00:59;3.75;;;0.80;;
50789;SDS011;37287;47.554;7.844;2023-04-01T02:03:28;3.13;;;0.95;;
50789;SDS011;37287;47.554;7.844;2023-04-01T02:05:58;5.22;;;1.30;;
50789;SDS011;37287;47.554;7.844;2023-04-01T02:08:30;3.88;;;0.88;;
50789;SDS011;37287;47.554;7.844;2023-04-01T02:11:04;3.53;;;1.13;;
50789;SDS011;37287;47.554;7.844;2023-04-01T02:16:19;3.42;;;1.23;;
50789;SDS011;37287;47.554;7.844;2023-04-01T02:18:54;2.88;;;0.80;;
50789;SDS011;37287;47.554;7.844;2023-04-01T02:21:24;2.35;;;0.90;;
50789;SDS011;37287;47.554;7.844;2023-04-01T02:23:54;3.22;;;1.13;;
50789;SDS011;37287;47.554;7.844;2023-04-01T02:26:23;4.63;;;1.13;;
50789;SDS011;37287;47.554;7.844;2023-04-01T02:28:53;2.05;;;0.80;;
50789;SDS011;37287;47.554;7.844;2023-04-01T02:31:21;4.30;;;1.05;;
50789;SDS011;37287;47.554;7.844;2023-04-01T02:33:51;3.63;;;0.80;;
50789;SDS011;37287;47.554;7.844;2023-04-01T02:36:19;2.22;;;0.60;;
50789;SDS011;37287;47.554;7.844;2023-04-01T02:38:46;2.13;;;0.60;;
50789;SDS011;37287;47.554;7.844;2023-04-01T02:41:25;2.22;;;0.80;;
50789;SDS011;37287;47.554;7.844;2023-04-01T02:43:52;1.45;;;0.55;;
50789;SDS011;37287;47.554;7.844;2023-04-01T02:46:18;2.40;;;0.60;;
50789;SDS011;37287;47.554;7.844;2023-04-01T02:48:45;2.03;;;0.88;;
50789;SDS011;37287;47.554;7.844;2023-04-01T02:51:12;1.90;;;0.70;;
50789;SDS011;37287;47.554;7.844;2023-04-01T02:53:38;4.25;;;0.70;;
50789;SDS011;37287;47.554;7.844;2023-04-01T02:56:05;1.00;;;0.30;;
50789;SDS011;37287;47.554;7.844;2023-04-01T02:58:32;1.23;;;0.50;;
50789;SDS011;37287;47.554;7.844;2023-04-01T03:00:58;1.75;;;0.52;;
50789;SDS011;37287;47.554;7.844;2023-04-01T03:03:27;3.10;;;0.82;;
50789;SDS011;37287;47.554;7.844;2023-04-01T03:05:57;1.05;;;0.57;;
50789;SDS011;37287;47.554;7.844;2023-04-01T03:08:26;1.20;;;0.43;;
50789;SDS011;37287;47.554;7.844;2023-04-01T03:10:53;1.98;;;0.35;;
50789;SDS011;37287;47.554;7.844;2023-04-01T03:13:19;1.25;;;0.63;;
50789;SDS011;37287;47.554;7.844;2023-04-01T03:15:46;1.38;;;0.63;;
50789;SDS011;37287;47.554;7.844;2023-04-01T03:18:21;2.72;;;0.73;;
50789;SDS011;37287;47.554;7.844;2023-04-01T03:20:48;0.93;;;0.47;;
50789;SDS011;37287;47.554;7.844;2023-04-01T03:23:14;2.17;;;0.50;;
50789;SDS011;37287;47.554;7.844;2023-04-01T03:25:43;3.88;;;0.90;;
50789;SDS011;37287;47.554;7.844;2023-04-01T03:28:11;3.63;;;0.80;;
50789;SDS011;37287;47.554;7.844;2023-04-01T03:30:39;3.42;;;0.98;;
50789;SDS011;37287;47.554;7.844;2023-04-01T03:33:06;1.77;;;0.40;;
50789;SDS011;37287;47.554;7.844;2023-04-01T03:35:33;3.78;;;0.73;;
50789;SDS011;37287;47.554;7.844;2023-04-01T03:38:02;3.95;;;0.70;;
50789;SDS011;37287;47.554;7.844;2023-04-01T03:40:33;2.13;;;0.60;;
50789;SDS011;37287;47.554;7.844;2023-04-01T03:43:03;1.95;;;0.70;;
50789;SDS011;37287;47.554;7.844;2023-04-01T03:45:46;3.58;;;0.50;;
50789;SDS011;37287;47.554;7.844;2023-04-01T03:48:14;0.75;;;0.25;;
50789;SDS011;37287;47.554;7.844;2023-04-01T03:50:44;1.75;;;0.65;;
50789;SDS011;37287;47.554;7.844;2023-04-01T03:53:11;3.50;;;0.60;;
50789;SDS011;37287;47.554;7.844;2023-04-01T03:55:38;1.58;;;0.55;;
50789;SDS011;37287;47.554;7.844;2023-04-01T03:58:06;0.40;;;0.40;;
50789;SDS011;37287;47.554;7.844;2023-04-01T04:00:35;3.28;;;0.90;;
50789;SDS011;37287;47.554;7.844;2023-04-01T04:03:02;3.67;;;0.60;;
50789;SDS011;37287;47.554;7.844;2023-04-01T04:05:30;1.75;;;0.68;;
50789;SDS011;37287;47.554;7.844;2023-04-01T04:07:57;1.88;;;0.50;;
50789;SDS011;37287;47.554;7.844;2023-04-01T04:10:24;2.38;;;0.60;;
50789;SDS011;37287;47.554;7.844;2023-04-01T04:12:57;1.80;;;0.70;;
50789;SDS011;37287;47.554;7.844;2023-04-01T04:15:23;1.52;;;0.60;;
50789;SDS011;37287;47.554;7.844;2023-04-01T04:17:50;1.13;;;0.40;;
50789;SDS011;37287;47.554;7.844;2023-04-01T04:20:17;2.75;;;0.60;;
50789;SDS011;37287;47.554;7.844;2023-04-01T04:22:43;2.13;;;0.43;;
50789;SDS011;37287;47.554;7.844;2023-04-01T04:25:12;1.30;;;0.30;;
50789;SDS011;37287;47.554;7.844;2023-04-01T04:27:52;0.77;;;0.30;;
50789;SDS011;37287;47.554;7.844;2023-04-01T04:30:23;2.22;;;0.40;;
50789;SDS011;37287;47.554;7.844;2023-04-01T04:32:56;1.85;;;0.52;;
50789;SDS011;37287;47.554;7.844;2023-04-01T04:35:23;2.58;;;0.40;;
50789;SDS011;37287;47.554;7.844;2023-04-01T04:37:49;0.30;;;0.13;;
50789;SDS011;37287;47.554;7.844;2023-04-01T04:40:16;1.20;;;0.40;;
50789;SDS011;37287;47.554;7.844;2023-04-01T04:42:43;2.28;;;0.40;;
50789;SDS011;37287;47.554;7.844;2023-04-01T04:45:09;0.10;;;0.10;;
50789;SDS011;37287;47.554;7.844;2023-04-01T04:47:37;1.17;;;0.40;;
50789;SDS011;37287;47.554;7.844;2023-04-01T04:50:03;0.32;;;0.32;;
50789;SDS011;37287;47.554;7.844;2023-04-01T04:52:30;0.32;;;0.30;;
50789;SDS011;37287;47.554;7.844;2023-04-01T04:54:58;2.75;;;0.40;;
50789;SDS011;37287;47.554;7.844;2023-04-01T04:57:26;1.83;;;0.28;;
50789;SDS011;37287;47.554;7.844;2023-04-01T04:59:53;1.00;;;0.47;;
50789;SDS011;37287;47.554;7.844;2023-04-01T05:02:20;0.25;;;0.25;;
50789;SDS011;37287;47.554;7.844;2023-04-01T05:04:49;0.52;;;0.35;;
50789;SDS011;37287;47.554;7.844;2023-04-01T05:07:15;1.45;;;0.35;;
50789;SDS011;37287;47.554;7.844;2023-04-01T05:09:44;0.68;;;0.40;;
50789;SDS011;37287;47.554;7.844;2023-04-01T05:12:11;0.45;;;0.20;;
50789;SDS011;37287;47.554;7.844;2023-04-01T05:14:39;0.40;;;0.20;;
50789;SDS011;37287;47.554;7.844;2023-04-01T05:17:08;0.00;;;0.00;;
50789;SDS011;37287;47.554;7.844;2023-04-01T05:19:37;1.17;;;0.32;;
50789;SDS011;37287;47.554;7.844;2023-04-01T05:22:04;0.73;;;0.25;;
50789;SDS011;37287;47.554;7.844;2023-04-01T05:24:31;0.80;;;0.32;;
50789;SDS011;37287;47.554;7.844;2023-04-01T05:26:58;1.55;;;0.43;;
50789;SDS011;37287;47.554;7.844;2023-04-01T05:29:25;0.20;;;0.20;;
50789;SDS011;37287;47.554;7.844;2023-04-01T05:31:54;0.80;;;0.20;;
50789;SDS011;37287;47.554;7.844;2023-04-01T05:34:21;0.50;;;0.20;;
50789;SDS011;37287;47.554;7.844;2023-04-01T05:36:47;0.63;;;0.40;;
50789;SDS011;37287;47.554;7.844;2023-04-01T05:39:13;0.45;;;0.30;;
50789;SDS011;37287;47.554;7.844;2023-04-01T05:41:40;1.00;;;0.28;;
50789;SDS011;37287;47.554;7.844;2023-04-01T05:44:06;0.22;;;0.22;;
50789;SDS011;37287;47.554;7.844;2023-04-01T05:46:33;0.80;;;0.40;;
50789;SDS011;37287;47.554;7.844;2023-04-01T05:49:00;0.20;;;0.20;;
50789;SDS011;37287;47.554;7.844;2023-04-01T05:51:26;0.30;;;0.25;;
50789;SDS011;37287;47.554;7.844;2023-04-01T05:53:54;0.68;;;0.20;;
50789;SDS011;37287;47.554;7.844;2023-04-01T05:56:21;0.35;;;0.13;;
50789;SDS011;37287;47.554;7.844;2023-04-01T05:58:50;0.10;;;0.10;;
50789;SDS011;37287;47.554;7.844;2023-04-01T06:01:20;0.10;;;0.10;;
50789;SDS011;37287;47.554;7.844;2023-04-01T06:03:46;0.15;;;0.15;;
50789;SDS011;37287;47.554;7.844;2023-04-01T06:06:14;0.43;;;0.43;;
50789;SDS011;37287;47.554;7.844;2023-04-01T06:08:52;0.75;;;0.30;;
50789;SDS011;37287;47.554;7.844;2023-04-01T06:11:37;1.20;;;0.30;;
50789;SDS011;37287;47.554;7.844;2023-04-01T06:17:26;0.20;;;0.20;;
50789;SDS011;37287;47.554;7.844;2023-04-01T06:43:17;0.25;;;0.20;;
50789;SDS011;37287;47.554;7.844;2023-04-01T06:52:14;2.08;;;0.50;;
50789;SDS011;37287;47.554;7.844;2023-04-01T06:54:59;0.40;;;0.30;;
50789;SDS011;37287;47.554;7.844;2023-04-01T06:57:32;0.52;;;0.22;;
50789;SDS011;37287;47.554;7.844;2023-04-01T07:03:22;0.22;;;0.20;;
50789;SDS011;37287;47.554;7.844;2023-04-01T07:06:04;0.68;;;0.25;;
50789;SDS011;37287;47.554;7.844;2023-04-01T07:08:36;0.52;;;0.20;;
50789;SDS011;37287;47.554;7.844;2023-04-01T07:11:09;0.55;;;0.20;;
50789;SDS011;37287;47.554;7.844;2023-04-01T07:13:41;1.08;;;0.47;;
50789;SDS011;37287;47.554;7.844;2023-04-01T07:16:51;0.20;;;0.20;;
50789;SDS011;37287;47.554;7.844;2023-04-01T07:19:29;1.73;;;0.40;;
50789;SDS011;37287;47.554;7.844;2023-04-01T07:22:05;0.47;;;0.20;;
50789;SDS011;37287;47.554;7.844;2023-04-01T07:24:40;0.75;;;0.20;;
50789;SDS011;37287;47.554;7.844;2023-04-01T07:27:10;0.43;;;0.20;;
50789;SDS011;37287;47.554;7.844;2023-04-01T07:29:38;0.45;;;0.20;;
50789;SDS011;37287;47.554;7.844;2023-04-01T07:38:06;1.25;;;0.30;;
50789;SDS011;37287;47.554;7.844;2023-04-01T07:43:32;0.93;;;0.57;;
50789;SDS011;37287;47.554;7.844;2023-04-01T07:46:39;0.85;;;0.40;;
50789;SDS011;37287;47.554;7.844;2023-04-01T07:49:30;1.00;;;0.25;;
50789;SDS011;37287;47.554;7.844;2023-04-01T07:55:02;0.50;;;0.30;;
50789;SDS011;37287;47.554;7.844;2023-04-01T07:57:43;0.17;;;0.10;;
50789;SDS011;37287;47.554;7.844;2023-04-01T08:00:20;0.43;;;0.20;;
50789;SDS011;37287;47.554;7.844;2023-04-01T08:05:57;0.32;;;0.28;;
50789;SDS011;37287;47.554;7.844;2023-04-01T08:14:08;0.68;;;0.20;;
50789;SDS011;37287;47.554;7.844;2023-04-01T08:16:50;0.20;;;0.10;;
50789;SDS011;37287;47.554;7.844;2023-04-01T08:22:25;1.58;;;0.20;;
50789;SDS011;37287;47.554;7.844;2023-04-01T08:24:57;0.70;;;0.40;;
50789;SDS011;37287;47.554;7.844;2023-04-01T08:27:32;0.50;;;0.50;;
50789;SDS011;37287;47.554;7.844;2023-04-01T08:30:26;1.25;;;0.30;;
50789;SDS011;37287;47.554;7.844;2023-04-01T08:33:00;0.38;;;0.35;;
50789;SDS011;37287;47.554;7.844;2023-04-01T08:35:38;0.30;;;0.20;;
50789;SDS011;37287;47.554;7.844;2023-04-01T08:38:12;0.35;;;0.30;;
50789;SDS011;37287;47.554;7.844;2023-04-01T08:40:52;0.50;;;0.50;;
50789;SDS011;37287;47.554;7.844;2023-04-01T08:43:46;2.78;;;0.28;;
50789;SDS011;37287;47.554;7.844;2023-04-01T08:46:51;3.03;;;0.40;;
50789;SDS011;37287;47.554;7.844;2023-04-01T08:49:54;0.30;;;0.30;;
50789;SDS011;37287;47.554;7.844;2023-04-01T08:52:41;0.28;;;0.28;;
50789;SDS011;37287;47.554;7.844;2023-04-01T09:01:46;0.30;;;0.30;;
50789;SDS011;37287;47.554;7.844;2023-04-01T09:04:32;0.75;;;0.30;;
50789;SDS011;37287;47.554;7.844;2023-04-01T09:15:54;0.75;;;0.60;;
50789;SDS011;37287;47.554;7.844;2023-04-01T09:18:34;0.65;;;0.40;;
50789;SDS011;37287;47.554;7.844;2023-04-01T09:27:10;2.50;;;0.60;;
50789;SDS011;37287;47.554;7.844;2023-04-01T09:40:56;0.88;;;0.30;;
50789;SDS011;37287;47.554;7.844;2023-04-01T09:46:20;1.23;;;0.30;;
50789;SDS011;37287;47.554;7.844;2023-04-01T09:51:53;0.88;;;0.38;;
50789;SDS011;37287;47.554;7.844;2023-04-01T09:54:47;1.85;;;0.40;;
50789;SDS011;37287;47.554;7.844;2023-04-01T10:00:13;0.95;;;0.47;;
50789;SDS011;37287;47.554;7.844;2023-04-01T10:09:01;0.40;;;0.40;;
50789;SDS011;37287;47.554;7.844;2023-04-01T10:12:00;0.88;;;0.50;;
50789;SDS011;37287;47.554;7.844;2023-04-01T10:20:54;1.60;;;0.47;;
50789;SDS011;37287;47.554;7.844;2023-04-01T10:44:50;0.50;;;0.30;;
50789;SDS011;37287;47.554;7.844;2023-04-01T10:50:24;0.75;;;0.47;;
50789;SDS011;37287;47.554;7.844;2023-04-01T10:53:08;1.67;;;0.50;;
50789;SDS011;37287;47.554;7.844;2023-04-01T11:21:25;1.38;;;0.57;;
50789;SDS011;37287;47.554;7.844;2023-04-01T11:30:12;1.85;;;0.43;;
50789;SDS011;37287;47.554;7.844;2023-04-01T11:32:54;1.42;;;0.47;;
50789;SDS011;37287;47.554;7.844;2023-04-01T11:35:46;1.40;;;0.40;;
50789;SDS011;37287;47.554;7.844;2023-04-01T11:38:38;0.60;;;0.50;;
50789;SDS011;37287;47.554;7.844;2023-04-01T11:43:54;2.25;;;0.55;;
50789;SDS011;37287;47.554;7.844;2023-04-01T12:01:07;0.75;;;0.30;;
50789;SDS011;37287;47.554;7.844;2023-04-01T12:26:00;1.08;;;0.20;;
50789;SDS011;37287;47.554;7.844;2023-04-01T12:37:12;1.08;;;0.20;;
50789;SDS011;37287;47.554;7.844;2023-04-01T12:40:06;1.08;;;0.20;;
50789;SDS011;37287;47.554;7.844;2023-04-01T12:42:51;0.22;;;0.22;;
50789;SDS011;37287;47.554;7.844;2023-04-01T12:45:27;0.38;;;0.30;;
50789;SDS011;37287;47.554;7.844;2023-04-01T13:13:08;1.65;;;0.50;;
50789;SDS011;37287;47.554;7.844;2023-04-01T13:15:43;0.38;;;0.25;;
50789;SDS011;37287;47.554;7.844;2023-04-01T13:21:05;1.48;;;0.57;;
50789;SDS011;37287;47.554;7.844;2023-04-01T13:29:38;1.98;;;0.52;;
50789;SDS011;37287;47.554;7.844;2023-04-01T13:32:28;5.28;;;0.60;;
50789;SDS011;37287;47.554;7.844;2023-04-01T13:43:39;1.13;;;0.40;;
50789;SDS011;37287;47.554;7.844;2023-04-01T13:46:32;1.63;;;0.38;;
50789;SDS011;37287;47.554;7.844;2023-04-01T13:54:37;0.30;;;0.30;;
50789;SDS011;37287;47.554;7.844;2023-04-01T13:57:40;0.73;;;0.50;;
50789;SDS011;37287;47.554;7.844;2023-04-01T14:09:25;1.75;;;0.17;;
50789;SDS011;37287;47.554;7.844;2023-04-01T14:12:09;0.20;;;0.13;;
50789;SDS011;37287;47.554;7.844;2023-04-01T14:15:07;0.65;;;0.30;;
50789;SDS011;37287;47.554;7.844;2023-04-01T14:17:50;0.45;;;0.15;;
50789;SDS011;37287;47.554;7.844;2023-04-01T14:26:12;0.10;;;0.10;;
50789;SDS011;37287;47.554;7.844;2023-04-01T14:34:45;0.20;;;0.20;;
50789;SDS011;37287;47.554;7.844;2023-04-01T14:46:50;0.63;;;0.30;;
50789;SDS011;37287;47.554;7.844;2023-04-01T14:49:22;1.73;;;0.45;;
50789;SDS011;37287;47.554;7.844;2023-04-01T14:51:57;0.65;;;0.35;;
50789;SDS011;37287;47.554;7.844;2023-04-01T14:54:52;1.02;;;0.30;;
50789;SDS011;37287;47.554;7.844;2023-04-01T14:57:23;0.20;;;0.20;;
50789;SDS011;37287;47.554;7.844;2023-04-01T15:16:01;0.20;;;0.17;;
50789;SDS011;37287;47.554;7.844;2023-04-01T15:21:30;1.75;;;0.30;;
50789;SDS011;37287;47.554;7.844;2023-04-01T15:24:07;0.80;;;0.40;;
50789;SDS011;37287;47.554;7.844;2023-04-01T15:35:19;0.10;;;0.10;;
50789;SDS011;37287;47.554;7.844;2023-04-01T15:37:58;0.20;;;0.20;;
50789;SDS011;37287;47.554;7.844;2023-04-01T15:45:43;0.30;;;0.17;;
50789;SDS011;37287;47.554;7.844;2023-04-01T15:51:03;0.98;;;0.40;;
50789;SDS011;37287;47.554;7.844;2023-04-01T15:54:01;0.40;;;0.40;;
50789;SDS011;37287;47.554;7.844;2023-04-01T16:01:59;0.22;;;0.10;;
50789;SDS011;37287;47.554;7.844;2023-04-01T16:10:44;3.80;;;0.30;;
50789;SDS011;37287;47.554;7.844;2023-04-01T16:13:28;0.57;;;0.38;;
50789;SDS011;37287;47.554;7.844;2023-04-01T16:18:46;1.38;;;0.45;;
50789;SDS011;37287;47.554;7.844;2023-04-01T16:21:24;2.28;;;0.40;;
50789;SDS011;37287;47.554;7.844;2023-04-01T16:27:00;0.65;;;0.20;;
50789;SDS011;37287;47.554;7.844;2023-04-01T16:32:22;0.30;;;0.10;;
50789;SDS011;37287;47.554;7.844;2023-04-01T16:35:55;0.70;;;0.40;;
50789;SDS011;37287;47.554;7.844;2023-04-01T16:41:09;0.15;;;0.15;;
50789;SDS011;37287;47.554;7.844;2023-04-01T16:43:44;0.40;;;0.28;;
50789;SDS011;37287;47.554;7.844;2023-04-01T16:46:31;0.43;;;0.22;;
50789;SDS011;37287;47.554;7.844;2023-04-01T16:51:57;0.93;;;0.50;;
50789;SDS011;37287;47.554;7.844;2023-04-01T16:54:28;0.35;;;0.20;;
50789;SDS011;37287;47.554;7.844;2023-04-01T16:57:12;0.55;;;0.25;;
50789;SDS011;37287;47.554;7.844;2023-04-01T16:59:46;1.02;;;0.20;;
50789;SDS011;37287;47.554;7.844;2023-04-01T17:02:14;0.30;;;0.30;;
50789;SDS011;37287;47.554;7.844;2023-04-01T17:04:44;0.35;;;0.20;;
50789;SDS011;37287;47.554;7.844;2023-04-01T17:10:00;0.85;;;0.50;;
50789;SDS011;37287;47.554;7.844;2023-04-01T17:21:02;0.73;;;0.30;;
50789;SDS011;37287;47.554;7.844;2023-04-01T17:23:36;0.90;;;0.32;;
50789;SDS011;37287;47.554;7.844;2023-04-01T17:29:15;0.22;;;0.22;;
50789;SDS011;37287;47.554;7.844;2023-04-01T17:40:26;0.20;;;0.20;;
50789;SDS011;37287;47.554;7.844;2023-04-01T17:43:16;0.98;;;0.20;;
50789;SDS011;37287;47.554;7.844;2023-04-01T17:45:49;0.20;;;0.13;;
50789;SDS011;37287;47.554;7.844;2023-04-01T17:54:34;0.38;;;0.38;;
50789;SDS011;37287;47.554;7.844;2023-04-01T18:03:27;0.20;;;0.20;;
50789;SDS011;37287;47.554;7.844;2023-04-01T18:08:54;0.10;;;0.10;;
50789;SDS011;37287;47.554;7.844;2023-04-01T18:22:41;0.43;;;0.22;;
50789;SDS011;37287;47.554;7.844;2023-04-01T18:25:17;0.20;;;0.20;;
50789;SDS011;37287;47.554;7.844;2023-04-01T18:27:53;0.70;;;0.40;;
50789;SDS011;37287;47.554;7.844;2023-04-01T18:30:36;0.63;;;0.30;;
50789;SDS011;37287;47.554;7.844;2023-04-01T18:33:15;1.75;;;0.55;;
50789;SDS011;37287;47.554;7.844;2023-04-01T18:39:16;1.00;;;0.52;;
50789;SDS011;37287;47.554;7.844;2023-04-01T18:48:11;1.17;;;0.40;;
50789;SDS011;37287;47.554;7.844;2023-04-01T18:51:02;0.35;;;0.28;;
50789;SDS011;37287;47.554;7.844;2023-04-01T18:53:45;0.68;;;0.40;;
50789;SDS011;37287;47.554;7.844;2023-04-01T18:56:29;0.75;;;0.30;;
50789;SDS011;37287;47.554;7.844;2023-04-01T18:59:05;0.47;;;0.40;;
50789;SDS011;37287;47.554;7.844;2023-04-01T19:01:41;0.32;;;0.20;;
50789;SDS011;37287;47.554;7.844;2023-04-01T19:06:58;0.82;;;0.60;;
50789;SDS011;37287;47.554;7.844;2023-04-01T19:10:16;1.40;;;0.50;;
50789;SDS011;37287;47.554;7.844;2023-04-01T19:13:04;0.77;;;0.43;;
50789;SDS011;37287;47.554;7.844;2023-04-01T19:24:21;0.40;;;0.40;;
50789;SDS011;37287;47.554;7.844;2023-04-01T19:27:17;0.43;;;0.40;;
50789;SDS011;37287;47.554;7.844;2023-04-01T19:29:49;0.50;;;0.50;;
50789;SDS011;37287;47.554;7.844;2023-04-01T19:38:30;0.80;;;0.40;;
50789;SDS011;37287;47.554;7.844;2023-04-01T19:41:09;0.30;;;0.30;;
50789;SDS011;37287;47.554;7.844;2023-04-01T19:43:50;0.73;;;0.40;;
50789;SDS011;37287;47.554;7.844;2023-04-01T19:46:33;0.47;;;0.38;;
50789;SDS011;37287;47.554;7.844;2023-04-01T19:49:17;0.63;;;0.30;;
50789;SDS011;37287;47.554;7.844;2023-04-01T19:52:16;0.40;;;0.40;;
50789;SDS011;37287;47.554;7.844;2023-04-01T19:55:02;0.30;;;0.30;;
50789;SDS011;37287;47.554;7.844;2023-04-01T20:00:36;0.38;;;0.35;;
50789;SDS011;37287;47.554;7.844;2023-04-01T20:20:00;2.00;;;1.23;;
50789;SDS011;37287;47.554;7.844;2023-04-01T20:22:34;0.88;;;0.70;;
50789;SDS011;37287;47.554;7.844;2023-04-01T20:25:15;2.47;;;0.95;;
50789;SDS011;37287;47.554;7.844;2023-04-01T20:27:49;3.00;;;1.20;;
50789;SDS011;37287;47.554;7.844;2023-04-01T20:30:30;1.13;;;0.98;;
50789;SDS011;37287;47.554;7.844;2023-04-01T20:36:36;1.90;;;1.13;;
50789;SDS011;37287;47.554;7.844;2023-04-01T20:42:16;1.73;;;1.25;;
50789;SDS011;37287;47.554;7.844;2023-04-01T20:50:31;3.80;;;1.30;;
50789;SDS011;37287;47.554;7.844;2023-04-01T20:53:04;1.52;;;1.30;;
50789;SDS011;37287;47.554;7.844;2023-04-01T20:55:47;1.58;;;1.08;;
50789;SDS011;37287;47.554;7.844;2023-04-01T21:01:54;4.15;;;1.05;;
50789;SDS011;37287;47.554;7.844;2023-04-01T21:16:56;3.05;;;1.02;;
50789;SDS011;37287;47.554;7.844;2023-04-01T21:19:29;1.55;;;1.23;;
50789;SDS011;37287;47.554;7.844;2023-04-01T21:27:58;2.92;;;0.93;;
50789;SDS011;37287;47.554;7.844;2023-04-01T21:33:30;1.48;;;1.10;;
50789;SDS011;37287;47.554;7.844;2023-04-01T21:41:53;3.15;;;1.70;;
50789;SDS011;37287;47.554;7.844;2023-04-01T22:09:51;1.98;;;0.70;;
50789;SDS011;37287;47.554;7.844;2023-04-01T22:12:38;0.52;;;0.40;;
50789;SDS011;37287;47.554;7.844;2023-04-01T22:18:00;2.30;;;0.45;;
50789;SDS011;37287;47.554;7.844;2023-04-01T22:20:54;1.55;;;0.55;;
50789;SDS011;37287;47.554;7.844;2023-04-01T22:29:20;0.40;;;0.40;;
50789;SDS011;37287;47.554;7.844;2023-04-01T22:34:35;0.52;;;0.50;;
50789;SDS011;37287;47.554;7.844;2023-04-01T22:47:50;1.48;;;0.80;;
50789;SDS011;37287;47.554;7.844;2023-04-01T22:50:30;1.40;;;0.70;;
50789;SDS011;37287;47.554;7.844;2023-04-01T22:55:57;0.82;;;0.77;;
50789;SDS011;37287;47.554;7.844;2023-04-01T22:58:32;0.57;;;0.53;;
50789;SDS011;37287;47.554;7.844;2023-04-01T23:01:10;0.55;;;0.55;;
50789;SDS011;37287;47.554;7.844;2023-04-01T23:03:43;1.40;;;0.63;;
50789;SDS011;37287;47.554;7.844;2023-04-01T23:06:15;1.30;;;0.60;;
50789;SDS011;37287;47.554;7.844;2023-04-01T23:14:24;0.75;;;0.50;;
50789;SDS011;37287;47.554;7.844;2023-04-01T23:22:36;5.40;;;0.77;;
50789;SDS011;37287;47.554;7.844;2023-04-01T23:25:17;1.10;;;0.60;;
50789;SDS011;37287;47.554;7.844;2023-04-01T23:27:56;0.50;;;0.50;;
50789;SDS011;37287;47.554;7.844;2023-04-01T23:33:10;1.00;;;0.70;;
50789;SDS011;37287;47.554;7.844;2023-04-01T23:35:49;0.55;;;0.55;;
50789;SDS011;37287;47.554;7.844;2023-04-01T23:38:35;1.38;;;0.80;;
50789;SDS011;37287;47.554;7.844;2023-04-01T23:41:20;2.90;;;0.90;;
50789;SDS011;37287;47.554;7.844;2023-04-01T23:43:55;1.27;;;0.85;;
50789;SDS011;37287;47.554;7.844;2023-04-01T23:46:28;1.92;;;0.88;;
50789;SDS011;37287;47.554;7.844;2023-04-01T23:48:56;1.88;;;0.68;;
50789;SDS011;37287;47.554;7.844;2023-04-01T23:51:27;0.77;;;0.70;;
50789;SDS011;37287;47.554;7.844;2023-04-01T23:54:00;0.90;;;0.60;;
50789;SDS011;37287;47.554;7.844;2023-04-01T23:56:42;0.60;;;0.60;;
50789;SDS011;37287;47.554;7.844;2023-04-01T23:59:17;0.77;;;0.50;;
